createdAt,value
2023-02-09T00:01:27.868Z,100.00
2023-02-09T00:03:54.523Z,100.00
2023-02-09T00:06:22.864Z,100.00
2023-02-09T00:08:50.001Z,100.00
2023-02-09T00:11:46.730Z,100.00
2023-02-09T00:14:15.727Z,100.00
2023-02-09T00:16:42.664Z,100.00
2023-02-09T00:19:09.925Z,100.00
2023-02-09T00:21:36.713Z,100.00
2023-02-09T00:24:03.576Z,100.00
2023-02-09T00:26:29.968Z,100.00
2023-02-09T00:28:56.303Z,100.00
2023-02-09T00:31:22.848Z,100.00
2023-02-09T00:33:49.255Z,100.00
2023-02-09T00:36:15.771Z,100.00
2023-02-09T00:38:43.317Z,100.00
2023-02-09T00:41:10.268Z,100.00
2023-02-09T00:43:36.639Z,100.00
2023-02-09T00:46:03.260Z,100.00
2023-02-09T00:48:30.004Z,100.00
2023-02-09T00:50:56.638Z,100.00
2023-02-09T00:53:23.494Z,100.00
2023-02-09T00:55:50.886Z,100.00
2023-02-09T00:58:17.919Z,100.00
2023-02-09T01:00:44.954Z,100.00
2023-02-09T01:03:11.500Z,100.00
2023-02-09T01:05:42.011Z,100.00
2023-02-09T01:08:08.572Z,100.00
2023-02-09T01:10:34.951Z,100.00
2023-02-09T01:13:01.386Z,100.00
2023-02-09T01:15:27.724Z,100.00
2023-02-09T01:17:54.206Z,100.00
2023-02-09T01:20:20.560Z,100.00
2023-02-09T01:22:46.978Z,100.00
2023-02-09T01:25:13.317Z,100.00
2023-02-09T01:27:40.544Z,100.00
2023-02-09T01:30:07.420Z,100.00
2023-02-09T01:32:35.815Z,100.00
2023-02-09T01:35:02.182Z,100.00
2023-02-09T01:37:28.686Z,100.00
2023-02-09T01:39:55.037Z,100.00
2023-02-09T01:42:21.718Z,100.00
2023-02-09T01:45:21.115Z,100.00
2023-02-09T01:47:54.369Z,100.00
2023-02-09T01:50:21.771Z,100.00
2023-02-09T01:52:49.173Z,100.00
2023-02-09T01:55:20.172Z,100.00
2023-02-09T01:57:52.876Z,100.00
2023-02-09T02:00:21.635Z,100.00
2023-02-09T02:02:54.514Z,100.00
2023-02-09T02:05:22.796Z,100.00
2023-02-09T02:08:07.818Z,100.00
2023-02-09T02:10:34.206Z,100.00
2023-02-09T02:13:01.078Z,100.00
2023-02-09T02:15:36.129Z,100.00
2023-02-09T02:18:24.545Z,100.00
2023-02-09T02:21:18.395Z,100.00
2023-02-09T02:24:09.797Z,100.00
2023-02-09T02:26:56.564Z,100.00
2023-02-09T02:30:03.084Z,100.00
2023-02-09T02:33:05.330Z,100.00
2023-02-09T02:35:43.308Z,100.00
2023-02-09T02:38:39.990Z,100.00
2023-02-09T02:41:25.338Z,100.00
2023-02-09T02:44:05.736Z,100.00
2023-02-09T02:47:01.201Z,100.00
2023-02-09T02:49:39.614Z,100.00
2023-02-09T02:52:09.800Z,100.00
2023-02-09T02:54:40.962Z,100.00
2023-02-09T02:57:16.849Z,100.00
2023-02-09T02:59:54.228Z,100.00
2023-02-09T03:02:28.183Z,100.00
2023-02-09T03:04:58.024Z,100.00
2023-02-09T03:07:24.563Z,100.00
2023-02-09T03:09:52.351Z,100.00
2023-02-09T03:12:52.220Z,100.00
2023-02-09T03:15:27.797Z,100.00
2023-02-09T03:18:05.534Z,100.00
2023-02-09T03:20:42.228Z,100.00
2023-02-09T03:23:17.897Z,100.00
2023-02-09T03:25:49.991Z,100.00
2023-02-09T03:28:28.681Z,100.00
2023-02-09T03:30:57.534Z,100.00
2023-02-09T03:33:28.553Z,100.00
2023-02-09T03:35:57.083Z,100.00
2023-02-09T03:38:24.352Z,100.00
2023-02-09T03:40:50.802Z,100.00
2023-02-09T03:43:17.364Z,100.00
2023-02-09T03:45:43.735Z,100.00
2023-02-09T03:48:10.069Z,100.00
2023-02-09T03:50:37.471Z,100.00
2023-02-09T03:53:07.281Z,100.00
2023-02-09T03:55:34.138Z,100.00
2023-02-09T03:58:00.585Z,100.00
2023-02-09T04:00:27.092Z,100.00
2023-02-09T04:02:53.541Z,100.00
2023-02-09T04:05:19.979Z,100.00
2023-02-09T04:07:46.454Z,100.00
2023-02-09T04:10:12.982Z,100.00
2023-02-09T04:12:39.326Z,100.00
2023-02-09T04:15:06.070Z,100.00
2023-02-09T04:17:32.416Z,100.00
2023-02-09T04:19:58.906Z,100.00
2023-02-09T04:22:25.240Z,100.00
2023-02-09T04:24:51.628Z,100.00
2023-02-09T04:27:17.979Z,100.00
2023-02-09T04:29:44.319Z,100.00
2023-02-09T04:32:10.805Z,100.00
2023-02-09T04:34:37.194Z,100.00
2023-02-09T04:37:03.687Z,100.00
2023-02-09T04:39:30.196Z,100.00
2023-02-09T04:41:56.677Z,100.00
2023-02-09T04:44:23.025Z,100.00
2023-02-09T04:46:49.518Z,100.00
2023-02-09T04:49:15.871Z,100.00
2023-02-09T04:51:42.244Z,100.00
2023-02-09T04:54:08.590Z,100.00
2023-02-09T04:56:35.209Z,100.00
2023-02-09T04:59:20.041Z,100.00
2023-02-09T05:01:46.472Z,100.00
2023-02-09T05:04:12.815Z,100.00
2023-02-09T05:06:39.325Z,100.00
2023-02-09T05:09:05.645Z,100.00
2023-02-09T05:11:32.037Z,100.00
2023-02-09T05:13:58.367Z,100.00
2023-02-09T05:16:24.927Z,100.00
2023-02-09T05:18:51.337Z,100.00
2023-02-09T05:21:17.725Z,100.00
2023-02-09T05:23:44.058Z,100.00
2023-02-09T05:26:10.449Z,100.00
2023-02-09T05:28:36.804Z,100.00
2023-02-09T05:31:03.543Z,100.00
2023-02-09T05:33:29.964Z,100.00
2023-02-09T05:35:56.337Z,100.00
2023-02-09T05:38:23.498Z,100.00
2023-02-09T05:40:50.156Z,100.00
2023-02-09T05:43:16.811Z,100.00
2023-02-09T05:45:43.383Z,100.00
2023-02-09T05:48:09.805Z,100.00
2023-02-09T05:50:36.147Z,100.00
2023-02-09T05:53:02.530Z,100.00
2023-02-09T05:55:28.870Z,100.00
2023-02-09T05:57:55.290Z,100.00
2023-02-09T06:00:21.924Z,100.00
2023-02-09T06:02:48.511Z,100.00
2023-02-09T06:05:15.085Z,100.00
2023-02-09T06:07:41.496Z,100.00
2023-02-09T06:10:08.394Z,100.00
2023-02-09T06:12:34.973Z,100.00
2023-02-09T06:15:01.501Z,100.00
2023-02-09T06:17:27.872Z,100.00
2023-02-09T06:19:54.240Z,100.00
2023-02-09T06:22:20.790Z,100.00
2023-02-09T06:24:47.145Z,100.00
2023-02-09T06:27:13.635Z,100.00
2023-02-09T06:29:40.133Z,100.00
2023-02-09T06:32:06.806Z,100.00
2023-02-09T06:34:33.432Z,100.00
2023-02-09T06:36:59.771Z,100.00
2023-02-09T06:39:26.347Z,100.00
2023-02-09T06:41:52.803Z,100.00
2023-02-09T06:44:19.708Z,100.00
2023-02-09T06:46:46.105Z,100.00
2023-02-09T06:49:12.564Z,100.00
2023-02-09T06:51:38.996Z,100.00
2023-02-09T06:54:05.782Z,100.00
2023-02-09T06:56:32.146Z,100.00
2023-02-09T06:58:58.539Z,100.00
2023-02-09T07:01:24.909Z,100.00
2023-02-09T07:03:51.458Z,100.00
2023-02-09T07:06:19.753Z,100.00
2023-02-09T07:08:46.465Z,100.00
2023-02-09T07:11:15.266Z,100.00
2023-02-09T07:13:42.459Z,100.00
2023-02-09T07:16:10.498Z,100.00
2023-02-09T07:18:37.406Z,100.00
2023-02-09T07:21:10.373Z,100.00
2023-02-09T07:23:37.486Z,100.00
2023-02-09T07:26:05.832Z,100.00
2023-02-09T07:28:33.535Z,100.00
2023-02-09T07:31:05.748Z,100.00
2023-02-09T07:33:33.077Z,100.00
2023-02-09T07:35:59.456Z,100.00
2023-02-09T07:38:26.010Z,100.00
2023-02-09T07:40:52.550Z,100.00
2023-02-09T07:43:19.021Z,100.00
2023-02-09T07:45:45.587Z,100.00
2023-02-09T07:48:12.106Z,100.00
2023-02-09T07:50:38.702Z,100.00
2023-02-09T07:53:05.053Z,100.00
2023-02-09T07:55:31.562Z,100.00
2023-02-09T07:57:57.930Z,100.00
2023-02-09T08:00:25.532Z,100.00
2023-02-09T08:02:52.376Z,100.00
2023-02-09T08:05:30.740Z,100.00
2023-02-09T08:07:57.600Z,100.00
2023-02-09T08:10:24.044Z,100.00
2023-02-09T08:13:03.456Z,100.00
2023-02-09T08:15:42.989Z,100.00
2023-02-09T08:18:41.702Z,100.00
2023-02-09T08:21:10.798Z,100.00
2023-02-09T08:23:40.306Z,100.00
2023-02-09T08:26:10.163Z,100.00
2023-02-09T08:28:44.091Z,100.00
2023-02-09T08:31:12.619Z,100.00
2023-02-09T08:33:39.155Z,100.00
2023-02-09T08:36:05.817Z,100.00
2023-02-09T08:38:32.235Z,100.00
2023-02-09T08:41:02.350Z,100.00
2023-02-09T08:43:28.685Z,100.00
2023-02-09T08:45:55.220Z,100.00
2023-02-09T08:48:21.606Z,100.00
2023-02-09T08:50:48.002Z,100.00
2023-02-09T08:53:14.334Z,100.00
2023-02-09T08:55:40.729Z,100.00
2023-02-09T08:58:07.671Z,100.00
2023-02-09T09:00:34.160Z,100.00
2023-02-09T09:03:04.624Z,100.00
2023-02-09T09:05:32.147Z,100.00
2023-02-09T09:07:58.591Z,100.00
2023-02-09T09:10:25.078Z,100.00
2023-02-09T09:12:51.883Z,100.00
2023-02-09T09:15:18.777Z,100.00
2023-02-09T09:17:45.179Z,100.00
2023-02-09T09:20:11.702Z,100.00
2023-02-09T09:22:38.083Z,100.00
2023-02-09T09:25:05.723Z,100.00
2023-02-09T09:27:35.948Z,100.00
2023-02-09T09:30:04.464Z,100.00
2023-02-09T09:32:30.931Z,100.00
2023-02-09T09:34:59.023Z,100.00
2023-02-09T09:37:26.426Z,100.00
2023-02-09T09:39:52.815Z,100.00
2023-02-09T09:42:35.760Z,100.00
2023-02-09T09:45:05.458Z,100.00
2023-02-09T09:47:38.345Z,100.00
2023-02-09T09:50:21.462Z,100.00
2023-02-09T09:53:01.689Z,100.00
2023-02-09T09:55:31.313Z,100.00
2023-02-09T09:58:01.097Z,100.00
2023-02-09T10:00:33.763Z,100.00
2023-02-09T10:03:00.120Z,100.00
2023-02-09T10:05:37.658Z,100.00
2023-02-09T10:08:24.036Z,100.00
2023-02-09T10:11:05.202Z,100.00
2023-02-09T10:13:40.698Z,100.00
2023-02-09T10:16:17.085Z,100.00
2023-02-09T10:18:44.379Z,100.00
2023-02-09T10:21:13.818Z,100.00
2023-02-09T10:23:45.162Z,100.00
2023-02-09T10:26:20.699Z,99.08
2023-02-09T10:28:50.890Z,98.94
2023-02-09T10:31:28.890Z,99.04
2023-02-09T10:34:01.357Z,97.92
2023-02-09T10:36:33.585Z,97.75
2023-02-09T10:39:15.033Z,98.49
2023-02-09T10:41:44.411Z,97.07
2023-02-09T10:44:27.060Z,97.90
2023-02-09T10:47:27.027Z,95.80
2023-02-09T10:50:12.778Z,93.81
2023-02-09T10:52:44.202Z,93.85
2023-02-09T10:55:22.003Z,93.38
2023-02-09T10:57:48.588Z,92.52
2023-02-09T11:00:15.008Z,93.60
2023-02-09T11:02:43.147Z,95.16
2023-02-09T11:05:21.598Z,95.01
2023-02-09T11:08:06.760Z,94.20
2023-02-09T11:10:39.008Z,93.31
2023-02-09T11:13:23.180Z,93.70
2023-02-09T11:16:23.620Z,93.92
2023-02-09T11:19:11.346Z,93.63
2023-02-09T11:21:59.922Z,92.64
2023-02-09T11:24:45.178Z,93.83
2023-02-09T11:27:29.678Z,94.73
2023-02-09T11:30:26.915Z,94.59
2023-02-09T11:33:14.293Z,94.16
2023-02-09T11:35:59.514Z,94.78
2023-02-09T11:38:47.337Z,92.91
2023-02-09T11:41:38.013Z,93.93
2023-02-09T11:44:07.749Z,94.82
2023-02-09T11:46:35.477Z,94.64
2023-02-09T11:49:09.502Z,94.57
2023-02-09T11:51:39.022Z,94.29
2023-02-09T11:54:15.971Z,95.79
2023-02-09T11:56:52.772Z,95.46
2023-02-09T11:59:43.209Z,95.66
2023-02-09T12:02:38.548Z,96.27
2023-02-09T12:05:08.143Z,96.24
2023-02-09T12:07:43.782Z,97.04
2023-02-09T12:10:28.845Z,94.69
2023-02-09T12:13:28.785Z,94.41
2023-02-09T12:16:04.452Z,95.13
2023-02-09T12:18:33.157Z,95.20
2023-02-09T12:21:05.297Z,95.55
2023-02-09T12:23:36.737Z,93.60
2023-02-09T12:26:12.144Z,93.19
2023-02-09T12:28:38.491Z,92.61
2023-02-09T12:31:09.575Z,93.32
2023-02-09T12:33:46.373Z,93.05
2023-02-09T12:36:12.694Z,93.13
2023-02-09T12:38:55.931Z,94.44
2023-02-09T12:41:26.719Z,94.46
2023-02-09T12:44:08.307Z,95.47
2023-02-09T12:46:43.837Z,95.18
2023-02-09T12:49:20.768Z,95.35
2023-02-09T12:51:50.146Z,96.61
2023-02-09T12:54:38.535Z,98.22
2023-02-09T12:57:17.014Z,97.64
2023-02-09T12:59:49.589Z,97.99
2023-02-09T13:02:46.298Z,97.77
2023-02-09T13:05:17.070Z,99.15
2023-02-09T13:07:46.012Z,99.27
2023-02-09T13:10:33.372Z,99.78
2023-02-09T13:13:14.490Z,100.00
2023-02-09T13:15:47.028Z,100.00
2023-02-09T13:18:22.072Z,98.69
2023-02-09T13:21:01.984Z,100.00
2023-02-09T13:23:35.973Z,100.00
2023-02-09T13:26:19.558Z,100.00
2023-02-09T13:28:46.046Z,100.00
2023-02-09T13:31:35.917Z,100.00
2023-02-09T13:34:15.554Z,100.00
2023-02-09T13:37:07.880Z,100.00
2023-02-09T13:39:40.636Z,100.00
2023-02-09T13:42:22.291Z,100.00
2023-02-09T13:44:57.034Z,100.00
2023-02-09T13:47:24.516Z,100.00
2023-02-09T13:49:59.901Z,100.00
2023-02-09T13:52:31.620Z,100.00
2023-02-09T13:55:09.026Z,100.00
2023-02-09T13:57:37.330Z,100.00
2023-02-09T14:00:16.080Z,100.00
2023-02-09T14:02:48.220Z,100.00
2023-02-09T14:05:25.340Z,100.00
2023-02-09T14:07:52.699Z,100.00
2023-02-09T14:10:20.265Z,100.00
2023-02-09T14:13:01.798Z,100.00
2023-02-09T14:15:58.396Z,100.00
2023-02-09T14:18:53.817Z,100.00
2023-02-09T14:21:22.338Z,100.00
2023-02-09T14:24:12.802Z,100.00
2023-02-09T14:26:46.402Z,100.00
2023-02-09T14:29:19.478Z,100.00
2023-02-09T14:31:51.403Z,100.00
2023-02-09T14:34:28.566Z,100.00
2023-02-09T14:36:58.143Z,100.00
2023-02-09T14:39:24.621Z,100.00
2023-02-09T14:42:14.013Z,100.00
2023-02-09T14:44:49.692Z,100.00
2023-02-09T14:47:35.558Z,100.00
2023-02-09T14:50:02.884Z,100.00
2023-02-09T14:52:31.460Z,100.00
2023-02-09T14:55:02.035Z,100.00
2023-02-09T14:57:30.543Z,100.00
2023-02-09T14:59:56.866Z,100.00
2023-02-09T15:02:27.253Z,100.00
2023-02-09T15:04:54.496Z,100.00
2023-02-09T15:07:28.267Z,100.00
2023-02-09T15:09:54.617Z,100.00
2023-02-09T15:12:27.557Z,100.00
2023-02-09T15:14:56.513Z,100.00
2023-02-09T15:17:27.817Z,100.00
2023-02-09T15:19:55.329Z,100.00
2023-02-09T15:22:22.627Z,100.00
2023-02-09T15:24:53.384Z,100.00
2023-02-09T15:27:27.205Z,100.00
2023-02-09T15:29:57.915Z,100.00
2023-02-09T15:32:26.268Z,100.00
2023-02-09T15:34:53.955Z,100.00
2023-02-09T15:37:26.422Z,100.00
2023-02-09T15:40:42.640Z,100.00
2023-02-09T15:43:33.194Z,100.00
2023-02-09T15:46:18.052Z,100.00
2023-02-09T15:48:44.509Z,100.00
2023-02-09T15:51:11.040Z,100.00
2023-02-09T15:53:38.100Z,100.00
2023-02-09T15:56:06.768Z,100.00
2023-02-09T15:58:36.507Z,100.00
2023-02-09T16:01:04.349Z,100.00
2023-02-09T16:03:34.218Z,100.00
2023-02-09T16:06:06.823Z,100.00
2023-02-09T16:08:34.254Z,100.00
2023-02-09T16:11:01.749Z,100.00
2023-02-09T16:13:28.264Z,100.00
2023-02-09T16:15:58.239Z,100.00
2023-02-09T16:18:28.992Z,100.00
2023-02-09T16:20:55.331Z,100.00
2023-02-09T16:23:23.276Z,100.00
2023-02-09T16:25:51.412Z,100.00
2023-02-09T16:28:19.554Z,100.00
2023-02-09T16:30:49.930Z,100.00
2023-02-09T16:33:16.362Z,100.00
2023-02-09T16:35:44.229Z,100.00
2023-02-09T16:38:22.297Z,100.00
2023-02-09T16:40:49.224Z,100.00
2023-02-09T16:43:16.577Z,100.00
2023-02-09T16:45:53.952Z,100.00
2023-02-09T16:48:31.240Z,100.00
2023-02-09T16:50:58.364Z,100.00
2023-02-09T16:53:42.666Z,100.00
2023-02-09T16:56:12.198Z,100.00
2023-02-09T16:58:39.554Z,100.00
2023-02-09T17:01:14.418Z,100.00
2023-02-09T17:03:42.247Z,100.00
2023-02-09T17:06:15.714Z,100.00
2023-02-09T17:08:42.378Z,100.00
2023-02-09T17:11:16.499Z,100.00
2023-02-09T17:13:43.190Z,100.00
2023-02-09T17:16:19.898Z,100.00
2023-02-09T17:18:49.559Z,100.00
2023-02-09T17:21:25.216Z,100.00
2023-02-09T17:23:52.450Z,100.00
2023-02-09T17:26:19.696Z,100.00
2023-02-09T17:28:46.849Z,100.00
2023-02-09T17:31:20.346Z,100.00
2023-02-09T17:33:50.148Z,100.00
2023-02-09T17:36:26.859Z,100.00
2023-02-09T17:38:56.392Z,100.00
2023-02-09T17:41:33.007Z,100.00
2023-02-09T17:44:31.901Z,100.00
2023-02-09T17:47:03.167Z,100.00
2023-02-09T17:49:29.583Z,100.00
2023-02-09T17:51:55.970Z,100.00
2023-02-09T17:54:22.422Z,100.00
2023-02-09T17:56:48.785Z,100.00
2023-02-09T17:59:19.458Z,100.00
2023-02-09T18:01:49.476Z,100.00
2023-02-09T18:04:22.551Z,100.00
2023-02-09T18:06:49.296Z,100.00
2023-02-09T18:09:15.674Z,100.00
2023-02-09T18:12:03.862Z,100.00
2023-02-09T18:14:33.402Z,100.00
2023-02-09T18:17:00.374Z,100.00
2023-02-09T18:19:27.107Z,100.00
2023-02-09T18:21:59.248Z,100.00
2023-02-09T18:24:28.689Z,100.00
2023-02-09T18:26:55.351Z,100.00
2023-02-09T18:29:23.617Z,100.00
2023-02-09T18:31:50.936Z,100.00
2023-02-09T18:34:17.540Z,100.00
2023-02-09T18:36:43.869Z,100.00
2023-02-09T18:39:10.257Z,100.00
2023-02-09T18:41:36.660Z,100.00
2023-02-09T18:44:03.209Z,100.00
2023-02-09T18:46:29.636Z,100.00
2023-02-09T18:48:56.095Z,100.00
2023-02-09T18:51:22.908Z,100.00
2023-02-09T18:53:50.337Z,100.00
2023-02-09T18:56:21.600Z,100.00
2023-02-09T18:58:50.244Z,100.00
2023-02-09T19:01:21.839Z,100.00
2023-02-09T19:03:52.953Z,100.00
2023-02-09T19:06:20.460Z,100.00
2023-02-09T19:08:47.512Z,100.00
2023-02-09T19:11:16.751Z,100.00
2023-02-09T19:14:03.704Z,100.00
2023-02-09T19:16:30.044Z,100.00
2023-02-09T19:18:58.340Z,100.00
2023-02-09T19:21:24.932Z,100.00
2023-02-09T19:23:51.312Z,100.00
2023-02-09T19:26:17.648Z,100.00
2023-02-09T19:28:44.143Z,100.00
2023-02-09T19:31:13.331Z,100.00
2023-02-09T19:33:39.780Z,100.00
2023-02-09T19:36:06.417Z,100.00
2023-02-09T19:38:32.835Z,100.00
2023-02-09T19:41:10.331Z,100.00
2023-02-09T19:43:38.709Z,100.00
2023-02-09T19:46:05.725Z,100.00
2023-02-09T19:48:32.151Z,100.00
2023-02-09T19:50:59.496Z,100.00
2023-02-09T19:53:26.780Z,100.00
2023-02-09T19:55:54.160Z,100.00
2023-02-09T19:58:21.738Z,100.00
2023-02-09T20:00:48.585Z,100.00
2023-02-09T20:03:15.312Z,100.00
2023-02-09T20:05:42.619Z,100.00
2023-02-09T20:08:12.246Z,100.00
2023-02-09T20:10:39.436Z,100.00
2023-02-09T20:13:06.321Z,100.00
2023-02-09T20:15:32.838Z,100.00
2023-02-09T20:17:59.416Z,100.00
2023-02-09T20:20:25.751Z,100.00
2023-02-09T20:22:52.161Z,100.00
2023-02-09T20:25:18.571Z,100.00
2023-02-09T20:27:47.947Z,100.00
2023-02-09T20:30:14.507Z,100.00
2023-02-09T20:32:40.942Z,100.00
2023-02-09T20:35:07.538Z,100.00
2023-02-09T20:37:33.961Z,100.00
2023-02-09T20:40:01.365Z,100.00
2023-02-09T20:42:46.321Z,100.00
2023-02-09T20:45:35.876Z,100.00
2023-02-09T20:48:04.044Z,100.00
2023-02-09T20:50:32.835Z,100.00
2023-02-09T20:53:01.512Z,100.00
2023-02-09T20:55:28.466Z,100.00
2023-02-09T20:57:54.876Z,100.00
2023-02-09T21:00:21.446Z,100.00
2023-02-09T21:02:47.957Z,100.00
2023-02-09T21:05:14.551Z,100.00
2023-02-09T21:07:40.925Z,100.00
2023-02-09T21:10:07.519Z,100.00
2023-02-09T21:12:33.853Z,100.00
2023-02-09T21:15:00.378Z,100.00
2023-02-09T21:17:26.732Z,100.00
2023-02-09T21:19:53.123Z,100.00
2023-02-09T21:22:19.453Z,100.00
2023-02-09T21:24:45.835Z,100.00
2023-02-09T21:27:13.418Z,100.00
2023-02-09T21:29:39.854Z,100.00
2023-02-09T21:32:07.421Z,100.00
2023-02-09T21:34:33.964Z,100.00
2023-02-09T21:37:00.324Z,100.00
2023-02-09T21:39:26.757Z,100.00
2023-02-09T21:42:11.815Z,100.00
2023-02-09T21:44:38.217Z,100.00
2023-02-09T21:47:04.880Z,100.00
2023-02-09T21:49:32.034Z,100.00
2023-02-09T21:51:59.274Z,100.00
2023-02-09T21:54:28.181Z,100.00
2023-02-09T21:56:55.335Z,100.00
2023-02-09T21:59:21.832Z,100.00
2023-02-09T22:01:48.170Z,100.00
2023-02-09T22:04:14.573Z,100.00
2023-02-09T22:06:41.685Z,100.00
2023-02-09T22:09:08.051Z,100.00
2023-02-09T22:11:34.418Z,100.00
2023-02-09T22:14:00.832Z,100.00
2023-02-09T22:16:27.196Z,100.00
2023-02-09T22:18:53.912Z,100.00
2023-02-09T22:21:20.300Z,100.00
2023-02-09T22:23:47.009Z,100.00
2023-02-09T22:26:14.498Z,100.00
2023-02-09T22:28:41.936Z,100.00
2023-02-09T22:31:11.293Z,100.00
2023-02-09T22:33:37.792Z,100.00
2023-02-09T22:36:06.467Z,100.00
2023-02-09T22:38:33.669Z,100.00
2023-02-09T22:41:08.121Z,100.00
2023-02-09T22:43:34.713Z,100.00
2023-02-09T22:46:01.197Z,100.00
2023-02-09T22:48:27.617Z,100.00
2023-02-09T22:50:53.981Z,100.00
2023-02-09T22:53:20.351Z,100.00
2023-02-09T22:55:48.428Z,100.00
2023-02-09T22:58:15.190Z,100.00
2023-02-09T23:00:41.608Z,100.00
2023-02-09T23:03:07.994Z,100.00
2023-02-09T23:05:35.095Z,100.00
2023-02-09T23:08:01.519Z,100.00
2023-02-09T23:10:27.874Z,100.00
2023-02-09T23:12:54.230Z,100.00
2023-02-09T23:15:20.560Z,100.00
2023-02-09T23:17:46.938Z,100.00
2023-02-09T23:20:13.274Z,100.00
2023-02-09T23:22:40.006Z,100.00
2023-02-09T23:25:06.767Z,100.00
2023-02-09T23:27:33.270Z,100.00
2023-02-09T23:29:59.603Z,100.00
2023-02-09T23:32:26.059Z,100.00
2023-02-09T23:34:52.384Z,100.00
2023-02-09T23:37:34.853Z,100.00
2023-02-09T23:40:03.437Z,100.00
2023-02-09T23:42:29.947Z,100.00
2023-02-09T23:44:56.479Z,100.00
2023-02-09T23:47:22.861Z,100.00
2023-02-09T23:49:50.036Z,100.00
2023-02-09T23:52:16.410Z,100.00
2023-02-09T23:54:42.760Z,100.00
2023-02-09T23:57:09.158Z,100.00
2023-02-09T23:59:35.497Z,100.00
